Time;durP1;ratioP1;P1;durP2;ratioP2;P2;SDS_P1;SDS_P2;PMS_P1;PMS_P2;Temp;Humidity;BMP_temperature;BMP_pressure;BME280_temperature;BME280_humidity;BME280_pressure;Samples;Min_cycle;Max_cycle;Signal;HPM_P1;HPM_P2
2022/05/18 00:01:22;;;;;;;7.82;3.95;;;;;;;19.20;60.20;98931.88;4994458;28;20105;-49
2022/05/18 00:03:48;;;;;;;7.15;3.67;;;;;;;19.12;60.76;98935.78;4994504;28;20097;-50
2022/05/18 00:06:14;;;;;;;8.63;3.35;;;;;;;19.04;60.91;98927.44;4994424;28;20037;-50
2022/05/18 00:08:40;;;;;;;7.07;3.92;;;;;;;18.95;61.39;98927.06;5012018;28;20101;-50
2022/05/18 00:11:17;;;;;;;11.75;4.18;;;;;;;18.94;61.39;98936.91;4978189;28;20575;-50
2022/05/18 00:13:46;;;;;;;8.25;4.43;;;;;;;18.88;61.42;98935.25;4994414;28;20030;-51
2022/05/18 00:16:13;;;;;;;8.18;4.13;;;;;;;18.84;61.56;98941.31;4994287;28;20026;-50
2022/05/18 00:18:39;;;;;;;6.70;4.15;;;;;;;18.79;61.72;98946.53;5011934;28;20080;-50
2022/05/18 00:21:06;;;;;;;7.63;4.10;;;;;;;18.79;61.79;98950.00;4994294;28;20029;-50
2022/05/18 00:23:33;;;;;;;9.43;4.00;;;;;;;18.79;61.82;98947.34;4994257;28;20049;-50
2022/05/18 00:25:59;;;;;;;5.35;3.63;;;;;;;18.83;61.68;98950.31;4994274;28;20045;-50
2022/05/18 00:28:26;;;;;;;8.13;3.72;;;;;;;18.76;61.65;98950.50;4994267;28;20026;-50
2022/05/18 00:30:52;;;;;;;11.07;3.50;;;;;;;18.70;61.94;98951.47;4994113;28;20515;-50
2022/05/18 00:33:19;;;;;;;9.90;3.92;;;;;;;18.73;61.99;98949.13;4994149;28;20089;-50
2022/05/18 00:35:45;;;;;;;10.30;4.07;;;;;;;18.73;61.72;98949.13;4994400;28;20041;-50
2022/05/18 00:38:11;;;;;;;11.07;4.40;;;;;;;18.67;62.25;98950.13;5011826;28;20030;-51
2022/05/18 00:40:40;;;;;;;10.32;4.10;;;;;;;18.62;62.41;98949.25;5011752;28;20026;-51
2022/05/18 00:43:35;;;;;;;6.50;4.45;;;;;;;18.59;62.82;98957.69;4994069;28;20022;-51
2022/05/18 00:46:05;;;;;;;5.78;4.35;;;;;;;18.50;62.70;98963.44;4994036;28;20037;-50
2022/05/18 00:48:32;;;;;;;11.07;3.63;;;;;;;18.47;62.94;98965.78;4979998;28;20046;-50
2022/05/18 00:51:03;;;;;;;10.25;3.88;;;;;;;18.45;63.10;98960.72;4997759;28;20032;-50
2022/05/18 00:53:34;;;;;;;8.93;3.92;;;;;;;18.47;62.93;98949.84;5015516;28;20034;-50
2022/05/18 00:56:15;;;;;;;7.93;4.03;;;;;;;18.47;63.21;98960.47;4983485;28;20520;-50
2022/05/18 00:58:50;;;;;;;7.22;4.28;;;;;;;18.47;62.94;98961.28;4975090;28;20038;-49
2022/05/18 01:01:17;;;;;;;11.38;5.40;;;;;;;18.49;62.82;98959.19;4975034;28;20076;-50
2022/05/18 01:03:47;;;;;;;8.38;5.43;;;;;;;18.49;62.85;98963.69;4974944;28;20023;-50
2022/05/18 01:06:51;;;;;;;10.00;4.07;;;;;;;18.47;62.87;98961.28;4974996;28;20031;-50
2022/05/18 01:09:28;;;;;;;10.57;4.22;;;;;;;18.42;62.76;98961.22;4942691;28;20101;-50
2022/05/18 01:11:54;;;;;;;8.88;3.85;;;;;;;18.35;62.92;98968.53;4974818;28;20034;-49
2022/05/18 01:14:27;;;;;;;6.18;4.40;;;;;;;18.25;63.73;98973.69;4974748;28;20022;-50
2022/05/18 01:16:53;;;;;;;16.70;5.07;;;;;;;18.14;63.76;98960.28;4974736;28;20043;-50
2022/05/18 01:19:35;;;;;;;9.57;4.20;;;;;;;18.04;64.56;98969.94;4974664;28;20022;-50
2022/05/18 01:22:18;;;;;;;7.10;4.10;;;;;;;17.96;64.61;98973.81;4975893;28;20038;-50
2022/05/18 01:24:59;;;;;;;5.80;4.13;;;;;;;17.88;65.16;98968.91;4974669;28;20023;-51
2022/05/18 01:27:26;;;;;;;8.00;4.70;;;;;;;17.80;64.97;98977.22;4975886;28;20062;-51
2022/05/18 01:29:53;;;;;;;8.43;4.57;;;;;;;17.69;65.44;98971.75;4975743;28;20559;-50
2022/05/18 01:32:19;;;;;;;6.68;4.43;;;;;;;17.64;65.66;98984.13;4974364;28;20038;-51
2022/05/18 01:34:46;;;;;;;9.93;5.40;;;;;;;17.57;66.28;98979.78;4974388;28;20035;-51
2022/05/18 01:37:14;;;;;;;8.15;4.63;;;;;;;17.56;66.20;98980.78;4974349;28;20166;-50
2022/05/18 01:39:58;;;;;;;6.00;4.53;;;;;;;17.62;66.11;98991.53;4974314;28;20027;-50
2022/05/18 01:42:27;;;;;;;7.60;4.50;;;;;;;17.65;65.95;98983.88;4975615;28;20030;-51
2022/05/18 01:44:53;;;;;;;15.60;5.20;;;;;;;17.68;65.96;98985.25;4974270;28;20508;-51
2022/05/18 01:47:19;;;;;;;12.15;4.70;;;;;;;17.72;65.67;98984.53;4974185;28;20027;-51
2022/05/18 01:49:46;;;;;;;9.32;4.82;;;;;;;17.73;65.26;98988.00;4974071;28;20027;-50
2022/05/18 01:52:13;;;;;;;9.10;4.93;;;;;;;17.72;65.70;98986.38;4974021;28;20038;-51
2022/05/18 01:54:45;;;;;;;6.85;4.85;;;;;;;17.66;66.13;98984.69;4975352;28;20015;-50
2022/05/18 01:57:12;;;;;;;10.65;4.93;;;;;;;17.63;65.99;98987.84;4974018;28;20054;-50
2022/05/18 01:59:39;;;;;;;11.32;5.30;;;;;;;17.62;65.99;98987.00;4972681;28;20508;-50
2022/05/18 02:02:06;;;;;;;10.85;5.25;;;;;;;17.63;66.06;98990.50;4975218;28;20027;-51
2022/05/18 02:04:33;;;;;;;9.07;5.07;;;;;;;17.67;66.07;98988.97;4973904;28;20392;-50
2022/05/18 02:07:01;;;;;;;10.13;5.28;;;;;;;17.69;65.80;98981.56;4975082;28;20105;-50
2022/05/18 02:09:28;;;;;;;12.70;5.30;;;;;;;17.67;65.91;98984.47;4974958;28;20030;-51
2022/05/18 02:11:54;;;;;;;11.93;5.15;;;;;;;17.64;65.89;98979.63;4973714;28;20065;-50
2022/05/18 02:14:21;;;;;;;14.32;5.07;;;;;;;17.61;65.98;98982.75;4974983;28;20109;-51
2022/05/18 02:16:48;;;;;;;8.77;5.00;;;;;;;17.58;66.03;98986.66;4975244;28;20022;-50
2022/05/18 02:19:16;;;;;;;8.93;5.53;;;;;;;17.53;66.19;98972.53;4974859;28;20439;-51
2022/05/18 02:21:42;;;;;;;10.00;4.80;;;;;;;17.48;66.17;98981.19;4973561;28;20564;-50
2022/05/18 02:24:08;;;;;;;12.73;5.00;;;;;;;17.44;66.17;98985.34;4973510;28;20026;-50
2022/05/18 02:26:35;;;;;;;11.73;4.65;;;;;;;17.37;66.57;98990.81;4973459;28;20027;-51
2022/05/18 02:29:02;;;;;;;8.98;5.20;;;;;;;17.27;66.89;98982.66;4974637;28;20848;-51
2022/05/18 02:31:28;;;;;;;11.30;5.43;;;;;;;17.23;66.97;98983.38;4974620;28;20023;-51
2022/05/18 02:33:54;;;;;;;10.73;4.22;;;;;;;17.20;67.04;98987.28;4974652;28;20034;-51
2022/05/18 02:36:20;;;;;;;6.07;4.15;;;;;;;17.20;67.07;98992.59;4974833;28;20037;-50
2022/05/18 02:38:46;;;;;;;7.05;4.63;;;;;;;17.17;67.41;98987.78;4973281;28;20452;-51
2022/05/18 02:41:12;;;;;;;10.52;4.63;;;;;;;17.16;67.30;98989.63;4973212;28;20081;-51
2022/05/18 02:43:38;;;;;;;8.32;4.47;;;;;;;17.13;67.40;98989.28;4974434;28;20027;-50
2022/05/18 02:46:11;;;;;;;10.65;4.43;;;;;;;17.12;67.50;98987.66;4973078;28;20452;-50
2022/05/18 02:48:38;;;;;;;8.40;5.03;;;;;;;17.08;67.92;98987.38;4974425;28;20397;-50
2022/05/18 02:51:05;;;;;;;6.55;5.10;;;;;;;17.06;67.91;98983.31;4972922;28;20039;-50
2022/05/18 02:53:31;;;;;;;11.13;5.40;;;;;;;17.01;68.07;98996.47;4974225;28;20019;-50
2022/05/18 02:56:06;;;;;;;8.32;5.13;;;;;;;16.99;68.19;98987.97;4994580;28;20049;-50
2022/05/18 02:58:42;;;;;;;7.57;5.22;;;;;;;16.92;68.38;98988.91;4995540;28;20466;-51
2022/05/18 03:01:14;;;;;;;10.95;5.47;;;;;;;16.89;68.53;98986.69;5013109;28;20420;-50
2022/05/18 03:03:40;;;;;;;10.00;5.10;;;;;;;16.89;68.39;98989.34;4995441;28;20026;-51
2022/05/18 03:06:09;;;;;;;8.20;5.25;;;;;;;16.88;68.66;98989.56;4995334;28;20034;-51
2022/05/18 03:08:39;;;;;;;7.70;4.75;;;;;;;16.88;68.38;98987.75;4995335;28;20660;-51
2022/05/18 03:11:05;;;;;;;7.72;5.05;;;;;;;16.85;68.44;98993.50;5012461;28;20030;-50
2022/05/18 03:13:32;;;;;;;10.25;5.38;;;;;;;16.83;68.31;98994.78;5012924;28;20105;-50
2022/05/18 03:15:58;;;;;;;10.20;5.78;;;;;;;16.73;68.94;98990.03;5012803;28;20076;-50
2022/05/18 03:18:24;;;;;;;8.73;5.45;;;;;;;16.65;69.42;98993.84;4995092;28;20116;-50
2022/05/18 03:23:35;;;;;;;8.55;5.45;;;;;;;16.55;69.52;98998.94;5013040;28;20556;-50
2022/05/18 03:26:03;;;;;;;9.93;5.40;;;;;;;16.51;69.78;98997.78;5012684;28;20500;-50
2022/05/18 03:28:29;;;;;;;9.85;5.43;;;;;;;16.45;69.78;99002.16;5012592;28;20601;-50
2022/05/18 03:30:58;;;;;;;10.13;6.15;;;;;;;16.39;70.03;99005.72;5012523;28;20120;-51
2022/05/18 03:33:24;;;;;;;8.77;6.20;;;;;;;16.33;70.38;99004.00;4994911;28;20037;-51
2022/05/18 03:35:51;;;;;;;10.30;5.65;;;;;;;16.30;70.31;99007.91;4994840;28;20026;-50
2022/05/18 03:38:18;;;;;;;11.07;6.28;;;;;;;16.25;70.59;99005.13;4994837;28;20117;-50
2022/05/18 03:40:45;;;;;;;12.07;6.30;;;;;;;16.26;70.31;99013.88;5012471;28;20025;-51
2022/05/18 03:43:11;;;;;;;11.27;6.95;;;;;;;16.26;70.83;99022.66;5012469;28;20100;-50
2022/05/18 03:45:37;;;;;;;10.93;6.25;;;;;;;16.33;70.97;99014.59;5012421;28;20022;-50
2022/05/18 03:48:06;;;;;;;6.95;5.60;;;;;;;16.38;70.96;99018.19;4994736;28;20088;-50
2022/05/18 03:50:32;;;;;;;11.18;6.25;;;;;;;16.45;70.87;99010.09;4994532;28;20033;-50
2022/05/18 03:52:58;;;;;;;12.95;5.97;;;;;;;16.56;70.56;99016.47;4994614;28;20053;-50
2022/05/18 03:55:26;;;;;;;7.97;5.93;;;;;;;16.63;70.22;99026.94;4994421;28;20442;-50
2022/05/18 03:57:52;;;;;;;11.30;5.60;;;;;;;16.67;69.86;99020.13;5012275;28;20014;-50
2022/05/18 04:00:18;;;;;;;11.02;6.43;;;;;;;16.64;69.61;99028.53;4994521;28;20036;-50
2022/05/18 04:02:47;;;;;;;8.73;6.15;;;;;;;16.63;69.75;99026.94;4994510;28;20037;-51
2022/05/18 04:05:20;;;;;;;10.32;5.32;;;;;;;16.63;69.72;99029.59;5012094;28;20029;-50
2022/05/18 04:07:47;;;;;;;11.68;5.65;;;;;;;16.62;69.69;99030.59;4994566;28;20026;-50
2022/05/18 04:10:14;;;;;;;11.13;5.80;;;;;;;16.62;69.69;99026.13;4994344;28;20120;-51
2022/05/18 04:12:41;;;;;;;9.88;6.20;;;;;;;16.64;69.52;99028.53;5012130;28;20103;-51
2022/05/18 04:15:08;;;;;;;11.68;5.38;;;;;;;16.63;69.38;99026.94;4994366;28;20057;-50
2022/05/18 04:17:35;;;;;;;9.35;5.72;;;;;;;16.62;69.62;99026.13;4994373;28;20120;-50
2022/05/18 04:20:03;;;;;;;7.78;5.05;;;;;;;16.62;69.59;99027.94;5011966;28;20022;-51
2022/05/18 04:22:30;;;;;;;9.55;4.80;;;;;;;16.60;69.18;99033.50;5012019;28;20022;-50
2022/05/18 04:25:01;;;;;;;10.48;5.03;;;;;;;16.57;69.53;99034.75;5015847;28;20022;-51
2022/05/18 04:27:31;;;;;;;7.75;5.35;;;;;;;16.58;69.42;99038.22;5016004;28;20105;-50
2022/05/18 04:29:57;;;;;;;10.88;5.68;;;;;;;16.66;69.16;99040.53;5016150;28;20056;-50
2022/05/18 04:32:23;;;;;;;14.57;5.97;;;;;;;16.72;69.41;99046.72;4998188;28;20033;-50
2022/05/18 04:34:50;;;;;;;6.93;5.38;;;;;;;16.82;69.23;99046.19;4998174;28;20121;-50
2022/05/18 04:37:18;;;;;;;9.65;6.05;;;;;;;17.28;68.32;99044.47;5015792;28;20097;-50
2022/05/18 04:39:44;;;;;;;10.75;5.35;;;;;;;18.01;66.22;99053.56;5015722;28;20034;-51
2022/05/18 04:42:11;;;;;;;12.00;5.72;;;;;;;18.70;63.95;99042.66;5015683;28;20037;-51
2022/05/18 04:44:37;;;;;;;9.10;5.90;;;;;;;19.40;61.94;99051.03;4998031;28;20030;-50
2022/05/18 04:47:04;;;;;;;14.63;5.47;;;;;;;20.06;60.02;99045.59;5015653;28;20040;-51
2022/05/18 04:49:31;;;;;;;11.52;5.10;;;;;;;20.66;58.04;99048.97;5015494;28;20026;-50
2022/05/18 04:51:57;;;;;;;10.93;5.20;;;;;;;21.02;56.79;99051.06;5015509;28;20057;-50
2022/05/18 04:54:22;;;;;;;7.30;4.70;;;;;;;21.13;56.18;99042.03;4997885;28;20112;-50
2022/05/18 04:56:48;;;;;;;7.82;4.68;;;;;;;21.27;55.73;99056.50;5015241;28;20048;-50
2022/05/18 04:59:15;;;;;;;10.32;4.15;;;;;;;21.37;55.81;99058.41;4997693;28;20060;-50
2022/05/18 05:01:43;;;;;;;13.77;5.15;;;;;;;21.59;55.31;99060.09;4997631;28;20026;-50
2022/05/18 05:04:09;;;;;;;16.88;5.57;;;;;;;21.84;54.34;99057.47;5015328;28;20049;-50
2022/05/18 05:06:40;;;;;;;7.95;3.63;;;;;;;22.23;53.93;99066.84;4997580;28;20026;-50
2022/05/18 05:09:07;;;;;;;11.23;4.75;;;;;;;22.66;52.15;99068.19;4997452;28;20454;-50
2022/05/18 05:11:33;;;;;;;12.35;4.80;;;;;;;23.31;50.25;99062.13;4997502;28;20057;-50
2022/05/18 05:13:59;;;;;;;10.85;5.15;;;;;;;23.79;48.64;99072.38;4997439;28;20036;-51
2022/05/18 05:16:29;;;;;;;11.18;5.20;;;;;;;24.31;47.20;99065.53;5015078;28;20030;-50
2022/05/18 05:18:56;;;;;;;39.92;6.20;;;;;;;24.70;46.37;99067.34;5015081;28;20022;-51
2022/05/18 05:21:22;;;;;;;17.63;5.60;;;;;;;24.99;45.73;99066.50;5014989;28;20455;-51
2022/05/18 05:23:48;;;;;;;14.68;5.82;;;;;;;25.30;44.83;99069.66;5014964;28;20106;-50
2022/05/18 05:26:15;;;;;;;28.48;5.70;;;;;;;25.39;44.45;99059.06;4997275;28;20030;-50
2022/05/18 05:28:41;;;;;;;15.05;5.40;;;;;;;25.61;43.99;99067.34;4997292;28;20026;-49
2022/05/18 05:31:10;;;;;;;12.90;4.65;;;;;;;25.97;43.20;99066.88;4997048;28;20444;-49
2022/05/18 05:33:39;;;;;;;18.27;5.40;;;;;;;26.57;42.17;99068.03;4996788;28;20022;-48
2022/05/18 05:36:06;;;;;;;10.45;5.72;;;;;;;27.30;40.46;99066.41;4981046;28;20026;-49
2022/05/18 05:38:33;;;;;;;19.70;4.80;;;;;;;27.64;39.41;99057.06;4997041;28;20026;-49
2022/05/18 05:41:02;;;;;;;9.13;4.20;;;;;;;28.15;38.26;99057.78;4996974;28;20033;-49
2022/05/18 05:43:31;;;;;;;13.02;4.68;;;;;;;28.61;37.77;99064.72;4996995;28;20118;-49
2022/05/18 05:46:06;;;;;;;13.73;4.40;;;;;;;28.98;36.62;99058.06;4997264;28;20036;-48
2022/05/18 05:48:33;;;;;;;12.27;4.57;;;;;;;29.26;36.35;99058.63;5013238;28;20034;-48
2022/05/18 05:51:00;;;;;;;10.73;4.40;;;;;;;29.57;35.80;99063.13;5013010;28;20038;-49
2022/05/18 05:53:26;;;;;;;13.73;4.15;;;;;;;30.05;34.64;99056.75;4996696;28;20029;-49
2022/05/18 05:55:53;;;;;;;12.55;4.18;;;;;;;30.22;34.38;99060.56;5014143;28;20045;-48
2022/05/18 05:58:21;;;;;;;11.90;4.72;;;;;;;30.65;33.90;99062.38;5014195;28;20021;-49
2022/05/18 06:00:48;;;;;;;7.68;3.28;;;;;;;30.81;33.56;99062.66;5012853;28;20450;-49
2022/05/18 06:03:18;;;;;;;9.65;3.75;;;;;;;31.22;32.73;99063.88;4996510;28;20161;-48
2022/05/18 06:05:44;;;;;;;7.95;3.45;;;;;;;31.72;32.15;99056.88;5014126;28;20089;-49
2022/05/18 06:08:10;;;;;;;7.43;3.20;;;;;;;32.25;31.24;99061.47;5014113;28;20418;-49
2022/05/18 06:10:37;;;;;;;11.27;3.28;;;;;;;32.70;30.54;99059.09;4996365;28;20021;-49
2022/05/18 06:13:07;;;;;;;11.20;5.70;;;;;;;32.94;30.41;99053.66;4996349;28;20030;-49
2022/05/18 06:15:33;;;;;;;12.18;4.32;;;;;;;33.33;30.00;99056.81;4996399;28;20395;-48
2022/05/18 06:17:59;;;;;;;8.23;4.18;;;;;;;33.88;29.49;99051.78;4996549;28;20034;-49
2022/05/18 06:20:25;;;;;;;10.65;4.18;;;;;;;34.35;28.01;99048.41;5013890;28;20026;-48
2022/05/18 06:22:51;;;;;;;15.63;4.05;;;;;;;34.80;27.83;99051.84;4996149;28;20026;-49
2022/05/18 06:25:18;;;;;;;19.33;5.38;;;;;;;35.70;27.02;99054.63;5013741;28;20068;-49
2022/05/18 06:27:44;;;;;;;18.65;4.97;;;;;;;36.49;25.80;99053.38;5013808;28;20104;-48
2022/05/18 06:30:13;;;;;;;22.17;4.95;;;;;;;37.14;24.91;99051.66;5013621;28;20388;-48
2022/05/18 06:32:39;;;;;;;50.97;6.72;;;;;;;37.56;24.51;99056.91;5013884;28;20030;-49
2022/05/18 06:35:06;;;;;;;40.53;6.25;;;;;;;37.85;23.87;99053.72;5013558;28;20502;-50
2022/05/18 06:37:32;;;;;;;41.38;6.38;;;;;;;38.58;23.42;99050.53;5013468;28;20030;-49
2022/05/18 06:39:58;;;;;;;23.17;5.22;;;;;;;39.22;22.67;99058.44;4996058;28;20026;-50
2022/05/18 06:42:24;;;;;;;50.58;9.30;;;;;;;39.68;21.67;99049.63;4995815;28;20121;-49
2022/05/18 06:44:50;;;;;;;36.85;6.82;;;;;;;40.02;21.10;99052.13;5013425;28;20065;-50
2022/05/18 06:47:17;;;;;;;34.08;6.60;;;;;;;40.13;21.45;99052.94;4995224;28;20088;-50
2022/05/18 06:49:43;;;;;;;75.50;13.13;;;;;;;40.51;21.14;99045.91;5011936;28;20022;-49
2022/05/18 06:52:11;;;;;;;59.05;13.10;;;;;;;41.06;20.61;99046.63;4995615;28;20084;-50
2022/05/18 06:54:38;;;;;;;72.05;16.40;;;;;;;41.64;20.04;99042.50;4996100;28;20439;-49
2022/05/18 06:57:04;;;;;;;63.70;17.73;;;;;;;41.44;19.82;99036.69;5012056;28;20491;-52
2022/05/18 06:59:30;;;;;;;112.20;28.35;;;;;;;41.35;20.03;99047.31;5012315;28;20109;-50
2022/05/18 07:01:57;;;;;;;49.55;13.75;;;;;;;41.47;20.09;99046.88;5012149;28;20037;-52
2022/05/18 07:04:24;;;;;;;31.77;8.52;;;;;;;41.42;19.97;99044.56;5012144;28;20530;-51
2022/05/18 07:06:50;;;;;;;153.50;20.35;;;;;;;41.47;20.02;99037.84;5012067;28;20049;-51
2022/05/18 07:09:19;;;;;;;111.35;17.15;;;;;;;41.43;20.10;99039.81;4994415;28;20065;-49
2022/05/18 07:11:49;;;;;;;39.85;7.57;;;;;;;41.41;19.83;99039.44;5012077;28;20014;-49
2022/05/18 07:14:16;;;;;;;58.70;10.52;;;;;;;41.36;19.67;99035.13;5012048;28;20030;-50
2022/05/18 07:16:43;;;;;;;41.38;10.75;;;;;;;41.51;19.52;99039.41;5011988;28;20034;-50
2022/05/18 07:19:10;;;;;;;46.17;12.13;;;;;;;41.62;19.21;99033.09;5012001;28;20022;-52
2022/05/18 07:21:36;;;;;;;48.28;12.35;;;;;;;41.29;19.59;99038.72;4994286;28;20084;-52
2022/05/18 07:24:02;;;;;;;69.65;16.35;;;;;;;41.02;19.81;99035.63;5012145;28;20091;-52
2022/05/18 07:26:29;;;;;;;105.47;28.98;;;;;;;41.02;19.91;99037.59;5011765;28;20025;-52
2022/05/18 07:28:56;;;;;;;101.13;26.23;;;;;;;40.59;20.48;99038.44;5011667;28;20030;-52
2022/05/18 07:31:22;;;;;;;56.55;15.98;;;;;;;40.19;20.97;99039.59;4994197;28;20030;-52
2022/05/18 07:33:49;;;;;;;93.63;22.90;;;;;;;39.86;21.07;99035.94;5011944;28;20065;-52
2022/05/18 07:36:17;;;;;;;60.25;17.13;;;;;;;39.33;22.11;99043.59;5011707;28;20038;-52
2022/05/18 07:38:43;;;;;;;68.32;15.55;;;;;;;39.45;21.52;99039.75;4994057;28;20033;-51
2022/05/18 07:41:12;;;;;;;54.65;13.85;;;;;;;39.72;21.36;99040.25;5011686;28;20100;-51
2022/05/18 07:43:37;;;;;;;28.63;9.32;;;;;;;40.28;20.63;99045.47;4993983;28;20022;-52
2022/05/18 07:46:04;;;;;;;39.08;11.13;;;;;;;40.79;20.13;99046.28;5011484;28;20084;-52
2022/05/18 07:48:30;;;;;;;39.13;11.48;;;;;;;41.20;19.99;99041.09;5010248;28;20033;-53
2022/05/18 07:50:57;;;;;;;28.38;10.85;;;;;;;41.61;19.36;99037.78;5011345;28;20021;-52
2022/05/18 07:53:24;;;;;;;19.27;6.15;;;;;;;41.94;18.92;99040.34;4994342;28;20025;-53
2022/05/18 07:55:50;;;;;;;19.20;6.97;;;;;;;42.14;18.83;99037.88;4965416;28;1332445;-52
2022/05/18 07:58:19;;;;;;;10.77;4.53;;;;;;;42.52;18.16;99033.25;5012057;28;20303;-52
2022/05/18 08:00:46;;;;;;;20.65;6.13;;;;;;;42.89;18.19;99037.28;5012074;28;20046;-52
2022/05/18 08:03:12;;;;;;;17.80;4.97;;;;;;;43.26;17.73;99030.94;5010890;28;20167;-52
2022/05/18 08:05:40;;;;;;;19.25;4.85;;;;;;;43.66;17.06;99033.22;4994628;28;20041;-52
2022/05/18 08:08:09;;;;;;;17.45;4.90;;;;;;;44.22;16.67;99024.53;4994747;28;20152;-52
2022/05/18 08:16:04;;;;;;;21.58;5.22;;;;;;;45.49;15.35;99019.00;5012324;28;20088;-52
2022/05/18 08:18:29;;;;;;;22.00;6.25;;;;;;;45.64;15.24;99022.22;4994392;28;20052;-51
2022/05/18 08:20:55;;;;;;;21.02;5.75;;;;;;;45.75;15.40;99022.03;5011842;28;20483;-53
2022/05/18 08:23:21;;;;;;;20.15;4.45;;;;;;;46.10;15.04;99016.88;5011855;28;20026;-53
2022/05/18 08:25:47;;;;;;;16.38;5.00;;;;;;;46.39;14.54;99019.72;4994222;28;20026;-51
2022/05/18 08:28:14;;;;;;;18.60;4.63;;;;;;;46.42;14.50;99021.63;4994217;28;20025;-52
2022/05/18 08:30:42;;;;;;;15.18;3.88;;;;;;;46.72;14.54;99016.88;5010421;28;20034;-52
2022/05/18 08:33:09;;;;;;;34.67;5.60;;;;;;;46.53;14.44;99015.81;4994256;28;20022;-53
2022/05/18 08:35:34;;;;;;;14.80;3.88;;;;;;;46.38;14.76;99015.38;5011789;28;20112;-53
2022/05/18 08:38:00;;;;;;;11.90;3.85;;;;;;;46.40;14.71;99007.38;4994325;28;20365;-52
2022/05/18 08:40:29;;;;;;;11.57;3.92;;;;;;;46.41;14.54;99014.50;4994132;28;20037;-53
2022/05/18 08:42:57;;;;;;;23.30;4.82;;;;;;;46.36;14.58;99010.25;5011751;28;20022;-53
2022/05/18 08:45:27;;;;;;;20.90;5.55;;;;;;;46.24;14.61;99005.41;4994102;28;20117;-53
2022/05/18 08:48:00;;;;;;;22.15;4.47;;;;;;;45.95;14.77;99010.88;4994035;28;20022;-51
2022/05/18 08:50:27;;;;;;;10.13;3.67;;;;;;;46.02;14.91;98997.59;4994074;28;20026;-51
2022/05/18 08:52:59;;;;;;;25.60;5.50;;;;;;;45.98;14.81;99004.44;5010416;28;20022;-52
2022/05/18 08:56:08;;;;;;;16.83;4.55;;;;;;;46.22;14.88;98999.50;5011474;28;20093;-52
2022/05/18 08:59:02;;;;;;;20.77;5.70;;;;;;;46.48;14.85;98996.91;5011677;28;20034;-52
2022/05/18 09:01:46;;;;;;;22.20;6.45;;;;;;;46.51;14.55;99004.38;4992575;28;20041;-52
2022/05/18 09:04:17;;;;;;;;;;;;;;;47.09;14.91;99003.56;5012075;28;20057;-51
2022/05/18 09:07:01;;;;;;;40.88;6.10;;;;;;;47.17;14.30;99002.16;4993942;28;20489;-53
2022/05/18 09:12:26;;;;;;;46.83;8.00;;;;;;;46.70;14.43;99008.22;5015545;28;20110;-52
2022/05/18 09:14:53;;;;;;;19.10;5.18;;;;;;;46.74;14.19;99008.88;4997523;28;20117;-53
2022/05/18 09:17:45;;;;;;;41.42;11.23;;;;;;;46.47;14.31;99010.00;4981388;28;20450;-53
2022/05/18 09:20:21;;;;;;;23.52;7.03;;;;;;;46.38;14.13;99004.25;5015343;28;20080;-53
2022/05/18 09:23:15;;;;;;;44.13;12.82;;;;;;;46.34;14.27;99009.13;5014979;28;20381;-51
2022/05/18 09:25:55;;;;;;;23.30;5.10;;;;;;;45.98;13.97;99009.97;5014958;28;20021;-53
2022/05/18 09:28:29;;;;;;;19.42;4.72;;;;;;;46.02;14.15;99000.38;5015181;28;20034;-53
2022/05/18 09:31:22;;;;;;;22.60;5.82;;;;;;;46.34;13.88;99000.78;4997664;28;20499;-53
2022/05/18 09:34:09;;;;;;;20.35;6.45;;;;;;;45.97;13.77;99002.88;5014822;28;20032;-53
2022/05/18 09:36:52;;;;;;;14.35;5.00;;;;;;;45.89;14.08;98998.72;4997067;28;20037;-53
2022/05/18 09:39:25;;;;;;;21.20;6.43;;;;;;;45.99;13.83;99000.47;5014662;28;20403;-52
2022/05/18 09:41:59;;;;;;;15.02;4.82;;;;;;;45.75;13.90;99000.63;5014736;28;20480;-53
2022/05/18 09:44:37;;;;;;;14.77;4.18;;;;;;;45.69;14.22;98993.25;5014581;28;20112;-52
2022/05/18 09:47:04;;;;;;;24.02;4.65;;;;;;;45.91;14.04;98993.53;4980710;28;20038;-53
2022/05/18 09:49:44;;;;;;;29.40;5.82;;;;;;;46.01;13.98;98989.72;5014361;28;20449;-51
2022/05/18 09:52:11;;;;;;;19.92;4.38;;;;;;;45.56;13.78;98999.44;4996835;28;20237;-52
2022/05/18 09:54:38;;;;;;;14.57;4.30;;;;;;;45.30;14.19;98992.09;5014386;28;20022;-52
2022/05/18 09:57:23;;;;;;;18.70;3.75;;;;;;;45.35;14.47;98989.59;4980444;28;20104;-53
2022/05/18 10:00:19;;;;;;;62.17;12.48;;;;;;;45.45;14.42;98991.34;5014285;28;20030;-52
2022/05/18 10:08:24;;;;;;;22.20;4.18;;;;;;;45.06;14.34;98981.09;4999869;28;20029;-52
2022/05/18 10:11:00;;;;;;;23.63;4.38;;;;;;;45.22;13.74;98974.84;5013918;28;20026;-53
2022/05/18 10:13:32;;;;;;;17.88;3.00;;;;;;;45.10;13.86;98981.81;5014029;28;20443;-53
2022/05/18 10:16:19;;;;;;;31.40;5.97;;;;;;;45.21;14.19;98976.03;5014217;28;20081;-52
2022/05/18 10:18:54;;;;;;;24.48;7.25;;;;;;;45.06;14.03;98978.34;5014003;28;20084;-52
2022/05/18 10:21:33;;;;;;;12.98;3.40;;;;;;;44.70;14.34;98972.69;4995319;28;20050;-53
2022/05/18 10:24:02;;;;;;;13.77;3.65;;;;;;;44.62;14.78;98964.53;5012589;28;20443;-52
2022/05/18 10:26:30;;;;;;;19.17;4.53;;;;;;;44.26;14.88;98965.16;5013819;28;20033;-52
2022/05/18 10:29:02;;;;;;;22.23;4.47;;;;;;;44.17;14.56;98958.59;5013770;28;20464;-52
2022/05/18 10:31:41;;;;;;;21.92;3.80;;;;;;;43.99;15.09;98956.09;5012481;28;20034;-52
2022/05/18 10:34:29;;;;;;;12.23;3.38;;;;;;;43.42;15.27;98949.44;5013655;28;20385;-52
2022/05/18 10:36:58;;;;;;;12.52;2.60;;;;;;;43.01;16.02;98947.59;5013684;28;20037;-52
2022/05/18 10:39:44;;;;;;;19.33;3.97;;;;;;;42.76;16.06;98950.63;4996421;28;20373;-52
2022/05/18 10:42:16;;;;;;;8.65;2.40;;;;;;;42.80;15.70;98943.06;4995937;28;20052;-52
2022/05/18 10:44:42;;;;;;;14.32;2.97;;;;;;;42.72;15.79;98941.59;5013450;28;20407;-50
2022/05/18 10:47:14;;;;;;;16.42;4.05;;;;;;;42.47;16.02;98942.66;5013434;28;20026;-52
2022/05/18 10:49:42;;;;;;;8.95;2.53;;;;;;;42.48;16.35;98931.22;4995631;28;20030;-52
2022/05/18 10:52:30;;;;;;;13.23;3.10;;;;;;;43.06;16.00;98930.56;4996128;28;20442;-52
2022/05/18 10:55:17;;;;;;;9.80;2.67;;;;;;;43.53;15.45;98930.72;5012989;28;20041;-52
2022/05/18 10:58:04;;;;;;;9.75;2.63;;;;;;;43.52;15.33;98925.63;5013212;28;20400;-51
2022/05/18 11:00:53;;;;;;;13.10;2.95;;;;;;;42.92;15.74;98925.22;5011929;28;20030;-52
2022/05/18 11:03:30;;;;;;;9.88;2.85;;;;;;;42.93;15.94;98930.34;4995514;28;20034;-52
2022/05/18 11:06:09;;;;;;;9.32;3.25;;;;;;;43.37;15.78;98911.25;5013174;28;20042;-51
2022/05/18 11:08:35;;;;;;;11.38;2.25;;;;;;;43.80;14.93;98921.66;5013152;28;20061;-52
2022/05/18 11:11:23;;;;;;;10.88;2.50;;;;;;;43.94;14.86;98912.34;4995225;28;20030;-51
2022/05/18 11:14:15;;;;;;;5.43;2.03;;;;;;;44.35;14.89;98916.75;5012880;28;20065;-52
2022/05/18 11:16:47;;;;;;;15.90;4.03;;;;;;;44.41;14.69;98917.84;4995442;28;20040;-52
2022/05/18 11:19:31;;;;;;;8.77;2.00;;;;;;;43.82;14.71;98910.94;5012966;28;20018;-52
2022/05/18 11:22:24;;;;;;;7.15;2.22;;;;;;;43.54;15.10;98901.88;5012864;28;20026;-52
2022/05/18 11:25:10;;;;;;;4.45;2.08;;;;;;;43.82;14.78;98905.41;5012727;28;20029;-52
2022/05/18 11:27:51;;;;;;;10.77;2.13;;;;;;;44.19;14.27;98898.88;5012756;28;20029;-52
2022/05/18 11:30:18;;;;;;;11.23;2.40;;;;;;;44.38;14.53;98896.56;5012558;28;20022;-51
2022/05/18 11:33:19;;;;;;;15.55;2.90;;;;;;;44.42;14.15;98891.72;5012295;28;20033;-52
2022/05/18 11:36:01;;;;;;;17.48;2.50;;;;;;;44.50;13.78;98890.41;5012631;28;20045;-52
2022/05/18 11:38:33;;;;;;;17.95;3.15;;;;;;;44.38;13.59;98877.97;4995171;28;20030;-53
2022/05/18 11:41:02;;;;;;;18.08;3.08;;;;;;;43.66;14.08;98872.88;5012433;28;20169;-52
2022/05/18 11:43:50;;;;;;;12.10;3.03;;;;;;;43.38;14.21;98868.56;5012298;28;20032;-52
2022/05/18 11:46:38;;;;;;;12.75;2.38;;;;;;;43.00;14.86;98876.97;4994789;28;20038;-51
2022/05/18 11:49:33;;;;;;;5.53;1.90;;;;;;;42.84;14.52;98875.59;5012250;28;20034;-52
2022/05/18 11:52:24;;;;;;;4.63;1.65;;;;;;;43.12;14.27;98872.88;5012620;28;20403;-52
2022/05/18 11:54:55;;;;;;;44.30;5.25;;;;;;;43.26;14.80;98869.91;5012113;28;20064;-52
2022/05/18 11:57:52;;;;;;;12.75;1.77;;;;;;;43.12;14.64;98879.16;4994604;28;20057;-51
2022/05/18 12:03:36;;;;;;;31.55;5.88;;;;;;;42.37;15.15;98869.03;5012241;28;20029;-52